Time;durP1;ratioP1;P1;durP2;ratioP2;P2;SDS_P1;SDS_P2;PMS_P1;PMS_P2;Temp;Humidity;BMP_temperature;BMP_pressure;BME280_temperature;BME280_humidity;BME280_pressure;Samples;Min_cycle;Max_cycle;Signal;HPM_P1;HPM_P2
2021/12/11 00:01:43;;;;;;;1.73;1.63;;;3.50;99.90;;;;;;5073386;28;20207;-69
2021/12/11 00:04:14;;;;;;;1.92;1.70;;;3.50;99.90;;;;;;5073449;28;20257;-69
2021/12/11 00:06:45;;;;;;;2.28;2.00;;;3.60;99.90;;;;;;5072483;28;20208;-69
2021/12/11 00:09:23;;;;;;;2.92;1.70;;;3.60;99.90;;;;;;5073573;28;20188;-69
2021/12/11 00:12:00;;;;;;;2.00;1.90;;;3.50;99.90;;;;;;5073246;28;20591;-70
2021/12/11 00:14:37;;;;;;;1.80;1.70;;;3.60;99.90;;;;;;5073047;28;20317;-70
2021/12/11 00:17:04;;;;;;;1.55;1.45;;;3.60;99.90;;;;;;5073359;28;20571;-70
2021/12/11 00:19:33;;;;;;;1.40;1.30;;;3.60;99.90;;;;;;5073105;28;20203;-69
2021/12/11 00:22:11;;;;;;;1.55;1.45;;;3.50;99.90;;;;;;5073425;28;20200;-70
2021/12/11 00:24:39;;;;;;;2.13;1.90;;;3.50;99.90;;;;;;5071981;28;20180;-69
2021/12/11 00:27:22;;;;;;;1.50;1.40;;;3.50;99.90;;;;;;5073277;28;20269;-70
2021/12/11 00:29:49;;;;;;;2.00;1.90;;;3.50;99.90;;;;;;5073254;28;20215;-69
2021/12/11 00:32:28;;;;;;;1.73;1.63;;;3.50;99.90;;;;;;5071649;28;20212;-70
2021/12/11 00:35:20;;;;;;;1.73;1.48;;;3.40;99.90;;;;;;5072843;28;20180;-69
2021/12/11 00:37:48;;;;;;;3.45;1.88;;;3.50;99.90;;;;;;5072877;28;20192;-69
2021/12/11 00:40:25;;;;;;;1.40;1.30;;;3.40;99.90;;;;;;5073348;28;20204;-68
2021/12/11 00:42:57;;;;;;;1.63;1.52;;;3.40;99.90;;;;;;5073599;28;20608;-68
2021/12/11 00:45:27;;;;;;;1.70;1.38;;;3.40;99.90;;;;;;5071786;28;20192;-68
2021/12/11 00:48:02;;;;;;;2.03;1.92;;;3.40;99.90;;;;;;5073263;28;20188;-68
2021/12/11 00:50:32;;;;;;;2.45;2.10;;;3.40;99.90;;;;;;5071632;28;20587;-68
2021/12/11 00:53:08;;;;;;;1.48;1.35;;;3.40;99.90;;;;;;5073086;28;20192;-68
2021/12/11 00:55:45;;;;;;;1.80;1.70;;;3.40;99.90;;;;;;5073102;28;20191;-68
2021/12/11 00:58:23;;;;;;;1.95;1.80;;;3.40;99.90;;;;;;5072565;28;20198;-68
2021/12/11 01:01:09;;;;;;;1.80;1.70;;;3.40;99.90;;;;;;5072878;28;20196;-68
2021/12/11 01:03:38;;;;;;;3.15;2.35;;;3.40;99.90;;;;;;5072772;28;20180;-68
2021/12/11 01:06:12;;;;;;;2.30;2.10;;;3.40;99.90;;;;;;5072689;28;20208;-68
2021/12/11 01:08:42;;;;;;;2.15;1.95;;;3.40;99.90;;;;;;5072805;28;20628;-68
2021/12/11 01:11:18;;;;;;;2.03;1.92;;;3.30;99.90;;;;;;5072527;28;20268;-67
2021/12/11 01:13:54;;;;;;;2.05;1.95;;;3.30;99.90;;;;;;5071455;28;20644;-68
2021/12/11 01:16:21;;;;;;;2.78;2.58;;;3.30;99.90;;;;;;5072673;28;20224;-68
2021/12/11 01:18:56;;;;;;;3.50;3.20;;;3.30;99.90;;;;;;5074285;28;20250;-68
2021/12/11 01:21:56;;;;;;;2.75;2.55;;;3.30;99.90;;;;;;5075760;28;20566;-68
2021/12/11 01:24:41;;;;;;;3.45;2.60;;;3.30;99.90;;;;;;5075826;28;20659;-68
2021/12/11 01:27:10;;;;;;;3.92;2.10;;;3.20;99.90;;;;;;5076151;28;20214;-68
2021/12/11 01:29:37;;;;;;;2.80;2.28;;;3.20;99.90;;;;;;5075972;28;20203;-68
2021/12/11 01:32:05;;;;;;;3.15;2.35;;;3.20;99.90;;;;;;5076253;28;20208;-68
2021/12/11 01:34:33;;;;;;;2.05;1.95;;;3.20;99.90;;;;;;5076025;28;20257;-68
2021/12/11 01:37:00;;;;;;;1.58;1.48;;;3.20;99.90;;;;;;5075751;28;20220;-68
2021/12/11 01:39:31;;;;;;;1.88;1.77;;;3.10;99.90;;;;;;5075916;28;20207;-68
2021/12/11 01:42:00;;;;;;;6.15;1.55;;;3.20;99.90;;;;;;5075951;28;20195;-68
2021/12/11 01:44:31;;;;;;;1.85;1.75;;;3.10;99.90;;;;;;5075634;28;20656;-68
2021/12/11 01:47:13;;;;;;;2.10;2.00;;;3.10;99.90;;;;;;5075777;28;20195;-68
2021/12/11 01:49:43;;;;;;;2.03;1.92;;;3.10;99.90;;;;;;5075707;28;20237;-68
2021/12/11 01:52:19;;;;;;;1.90;1.80;;;3.10;99.90;;;;;;5075553;28;20192;-68
2021/12/11 01:54:47;;;;;;;2.20;2.10;;;3.10;99.90;;;;;;5075807;28;20292;-68
2021/12/11 01:57:24;;;;;;;2.20;2.10;;;3.10;99.90;;;;;;5075670;28;20277;-68
2021/12/11 02:00:06;;;;;;;2.22;2.13;;;3.10;99.90;;;;;;5075729;28;20187;-68
2021/12/11 02:02:40;;;;;;;2.80;2.67;;;3.10;99.90;;;;;;5075904;28;20211;-68
2021/12/11 02:05:08;;;;;;;2.20;2.00;;;3.10;99.90;;;;;;5075340;28;20188;-68
2021/12/11 02:07:45;;;;;;;2.50;2.30;;;3.00;99.90;;;;;;5075854;28;20208;-68
2021/12/11 02:10:20;;;;;;;2.60;2.40;;;3.00;99.90;;;;;;5075254;28;20697;-68
2021/12/11 02:12:46;;;;;;;2.30;2.20;;;3.00;99.90;;;;;;5075287;28;20211;-68
2021/12/11 02:15:28;;;;;;;2.95;2.75;;;3.00;99.90;;;;;;5075196;28;20204;-68
2021/12/11 02:18:08;;;;;;;2.17;2.08;;;3.00;99.90;;;;;;5075231;28;20617;-68
2021/12/11 02:20:42;;;;;;;3.47;2.42;;;3.00;99.90;;;;;;5075126;28;20257;-68
2021/12/11 02:23:11;;;;;;;3.10;2.90;;;2.90;99.90;;;;;;5075178;28;20604;-68
2021/12/11 02:25:43;;;;;;;2.67;2.47;;;2.90;99.90;;;;;;5075254;28;20204;-68
2021/12/11 02:28:17;;;;;;;2.90;2.80;;;2.90;99.90;;;;;;5075074;28;20189;-68
2021/12/11 02:30:53;;;;;;;2.40;2.30;;;2.90;99.90;;;;;;5074887;28;20682;-68
2021/12/11 02:33:22;;;;;;;2.33;2.22;;;3.00;99.90;;;;;;5075058;28;20180;-68
2021/12/11 02:35:58;;;;;;;3.55;3.35;;;2.90;99.90;;;;;;5074971;28;20207;-68
2021/12/11 02:38:30;;;;;;;2.95;2.75;;;2.90;99.90;;;;;;5074625;28;20207;-68
2021/12/11 02:41:38;;;;;;;3.53;2.72;;;2.90;99.90;;;;;;5073467;28;20214;-68
2021/12/11 02:44:19;;;;;;;3.50;3.30;;;2.90;99.90;;;;;;5073907;28;20273;-68
2021/12/11 02:46:58;;;;;;;13.15;10.38;;;2.90;99.90;;;;;;5074571;28;20647;-68
2021/12/11 02:49:52;;;;;;;4.28;3.97;;;2.90;99.90;;;;;;5074390;28;20646;-68
2021/12/11 02:52:23;;;;;;;3.70;3.40;;;2.80;99.90;;;;;;5074722;28;20242;-68
2021/12/11 02:55:01;;;;;;;4.10;3.75;;;2.80;99.90;;;;;;5074438;28;20224;-68
2021/12/11 02:57:41;;;;;;;4.40;4.05;;;2.90;99.90;;;;;;5073040;28;20223;-68
2021/12/11 03:00:14;;;;;;;6.38;5.80;;;2.90;99.90;;;;;;5074794;28;20188;-68
2021/12/11 03:02:46;;;;;;;4.15;3.85;;;2.90;99.90;;;;;;5074655;28;20191;-68
2021/12/11 03:05:16;;;;;;;4.20;3.90;;;2.90;99.90;;;;;;5074458;28;20229;-68
2021/12/11 03:07:50;;;;;;;5.68;5.18;;;2.80;99.90;;;;;;5074855;28;20217;-68
2021/12/11 03:10:21;;;;;;;10.95;9.80;;;2.90;99.90;;;;;;5074187;28;20180;-68
2021/12/11 03:12:48;;;;;;;5.63;4.93;;;2.90;99.90;;;;;;5074369;28;20196;-68
2021/12/11 03:15:16;;;;;;;11.40;10.20;;;2.90;99.90;;;;;;5074193;28;20200;-68
2021/12/11 03:17:44;;;;;;;7.38;6.10;;;2.90;99.90;;;;;;5074512;28;20223;-68
2021/12/11 03:20:13;;;;;;;10.35;9.18;;;2.90;99.90;;;;;;5074501;28;20321;-68
2021/12/11 03:22:43;;;;;;;9.30;7.20;;;2.80;99.90;;;;;;5073328;28;20200;-69
2021/12/11 03:25:13;;;;;;;4.75;4.45;;;2.80;99.90;;;;;;5074541;28;20655;-68
2021/12/11 03:27:40;;;;;;;4.78;4.43;;;2.80;99.90;;;;;;5074561;28;20207;-68
2021/12/11 03:30:10;;;;;;;4.82;4.47;;;2.80;99.90;;;;;;5074504;28;20199;-68
2021/12/11 03:32:37;;;;;;;4.85;4.45;;;2.80;99.90;;;;;;5073942;28;20750;-68
2021/12/11 03:35:07;;;;;;;5.00;4.45;;;2.80;99.90;;;;;;5073855;28;20204;-68
2021/12/11 03:37:34;;;;;;;5.07;4.68;;;2.80;99.90;;;;;;5074044;28;20219;-68
2021/12/11 03:40:03;;;;;;;5.10;4.70;;;2.80;99.90;;;;;;5073658;28;20667;-68
2021/12/11 03:42:35;;;;;;;5.13;4.75;;;2.80;99.90;;;;;;5073299;28;20218;-68
2021/12/11 03:45:06;;;;;;;5.10;4.70;;;2.80;99.90;;;;;;5073539;28;20249;-68
2021/12/11 03:47:39;;;;;;;3.95;3.65;;;2.90;99.90;;;;;;5072485;28;20192;-68
2021/12/11 03:50:12;;;;;;;5.72;4.60;;;2.90;99.90;;;;;;5073369;28;20236;-68
2021/12/11 03:52:43;;;;;;;5.03;4.63;;;2.90;99.90;;;;;;5073204;28;20200;-68
2021/12/11 03:55:12;;;;;;;5.50;5.10;;;2.80;99.90;;;;;;5073750;28;20586;-68
2021/12/11 03:57:41;;;;;;;5.18;4.75;;;2.90;99.90;;;;;;5073632;28;20270;-68
2021/12/11 04:00:12;;;;;;;5.30;4.70;;;2.90;99.90;;;;;;5073479;28;20200;-68
2021/12/11 04:02:39;;;;;;;5.15;4.75;;;2.90;99.90;;;;;;5073307;28;20553;-68
2021/12/11 04:05:08;;;;;;;4.30;4.00;;;2.90;99.90;;;;;;5073614;28;20204;-68
2021/12/11 04:07:39;;;;;;;5.13;4.72;;;2.90;99.90;;;;;;5073248;28;20629;-68
2021/12/11 04:10:09;;;;;;;5.70;5.20;;;2.90;99.90;;;;;;5072274;28;20199;-68
2021/12/11 04:12:35;;;;;;;5.85;5.35;;;2.90;99.90;;;;;;5073451;28;20211;-68
2021/12/11 04:15:04;;;;;;;6.35;5.85;;;2.90;99.90;;;;;;5073122;28;20207;-68
2021/12/11 04:17:31;;;;;;;6.80;5.30;;;2.90;99.90;;;;;;5073570;28;20745;-68
2021/12/11 04:20:01;;;;;;;5.95;5.35;;;2.90;99.90;;;;;;5073343;28;20208;-68
2021/12/11 04:22:28;;;;;;;6.35;5.85;;;2.90;99.90;;;;;;5073448;28;20192;-68
2021/12/11 04:24:55;;;;;;;6.65;6.05;;;2.90;99.90;;;;;;5073189;28;20662;-68
2021/12/11 04:27:24;;;;;;;7.22;6.30;;;2.90;99.90;;;;;;5073486;28;20226;-68
2021/12/11 04:29:52;;;;;;;6.25;5.75;;;2.90;99.90;;;;;;5073203;28;20644;-68
2021/12/11 04:32:20;;;;;;;6.95;6.40;;;2.90;99.90;;;;;;5073743;28;20204;-68
2021/12/11 04:34:48;;;;;;;6.20;5.70;;;2.90;99.90;;;;;;5073236;28;20269;-68
2021/12/11 04:37:23;;;;;;;7.50;6.80;;;3.00;99.90;;;;;;5073089;28;20694;-68
2021/12/11 04:39:57;;;;;;;5.90;5.40;;;3.00;99.90;;;;;;5072914;28;20218;-68
2021/12/11 04:45:39;;;;;;;6.15;5.65;;;2.90;99.90;;;;;;5072851;28;20195;-68
2021/12/11 04:48:23;;;;;;;7.35;6.65;;;2.90;99.90;;;;;;5069728;28;20218;-69
2021/12/11 04:51:13;;;;;;;7.38;6.68;;;2.90;99.90;;;;;;5073149;28;20246;-68
2021/12/11 05:09:43;;;;;;;7.60;6.90;;;3.00;99.90;;;;;;5076491;28;20234;-67
2021/12/11 05:14:51;;;;;;;8.90;8.00;;;3.10;99.90;;;;;;5076762;28;20472;-67
2021/12/11 05:17:19;;;;;;;7.85;7.15;;;3.10;99.90;;;;;;5076313;28;20220;-67
2021/12/11 05:19:46;;;;;;;7.40;6.70;;;3.10;99.90;;;;;;5076141;28;20624;-67
2021/12/11 05:22:14;;;;;;;7.10;6.45;;;3.10;99.90;;;;;;5074995;28;20690;-67
2021/12/11 05:24:44;;;;;;;7.55;6.35;;;3.10;99.90;;;;;;5076503;28;20572;-67
2021/12/11 05:27:11;;;;;;;6.63;6.05;;;3.10;99.90;;;;;;5075206;28;20203;-67
2021/12/11 05:29:38;;;;;;;6.78;6.18;;;3.10;99.90;;;;;;5076455;28;20265;-67
2021/12/11 05:32:07;;;;;;;6.82;6.13;;;3.10;99.90;;;;;;5076485;28;20264;-67
2021/12/11 05:34:34;;;;;;;7.32;6.72;;;3.20;99.90;;;;;;5076003;28;20196;-67
2021/12/11 05:37:00;;;;;;;8.40;7.47;;;3.20;99.90;;;;;;5075638;28;20819;-67
2021/12/11 05:39:27;;;;;;;8.23;7.53;;;3.20;99.90;;;;;;5076260;28;20199;-67
2021/12/11 05:41:53;;;;;;;7.40;6.70;;;3.20;99.90;;;;;;5076211;28;20196;-67
2021/12/11 05:44:21;;;;;;;7.82;7.07;;;3.20;99.90;;;;;;5075828;28;20200;-67
2021/12/11 05:46:48;;;;;;;8.30;7.50;;;3.20;99.90;;;;;;5075538;28;20694;-67
2021/12/11 05:49:14;;;;;;;6.75;6.15;;;3.20;99.90;;;;;;5075654;28;20203;-67
2021/12/11 05:51:43;;;;;;;6.35;5.40;;;3.20;99.90;;;;;;5075062;28;20235;-67
2021/12/11 05:54:15;;;;;;;6.38;5.80;;;3.10;99.90;;;;;;5075478;28;20631;-67
2021/12/11 05:56:43;;;;;;;7.55;6.95;;;3.20;99.90;;;;;;5075315;28;20232;-67
2021/12/11 05:59:13;;;;;;;6.38;5.78;;;3.20;99.90;;;;;;5075636;28;20200;-67
2021/12/11 06:01:54;;;;;;;6.65;6.05;;;3.10;99.90;;;;;;5075627;28;20200;-67
2021/12/11 06:04:25;;;;;;;6.55;5.97;;;3.20;99.90;;;;;;5075508;28;20256;-67
2021/12/11 06:06:53;;;;;;;5.88;5.38;;;3.20;99.90;;;;;;5075564;28;20211;-67
2021/12/11 06:09:22;;;;;;;7.18;6.55;;;3.20;99.90;;;;;;5075777;28;20207;-68
2021/12/11 06:11:52;;;;;;;5.88;5.30;;;3.20;99.90;;;;;;5075657;28;20616;-67
2021/12/11 06:14:21;;;;;;;6.97;6.35;;;3.20;99.90;;;;;;5075185;28;20207;-67
2021/12/11 06:16:50;;;;;;;6.97;6.38;;;3.20;99.90;;;;;;5075292;28;20246;-67
2021/12/11 06:19:20;;;;;;;6.15;5.65;;;3.20;99.90;;;;;;5053721;28;20196;-67
2021/12/11 06:21:49;;;;;;;6.38;5.88;;;3.20;99.90;;;;;;5055506;28;20205;-67
2021/12/11 06:24:16;;;;;;;7.15;6.50;;;3.20;99.90;;;;;;5055094;28;20200;-67
2021/12/11 06:26:43;;;;;;;7.00;6.40;;;3.20;99.90;;;;;;5054825;28;20596;-67
2021/12/11 06:29:10;;;;;;;8.25;7.47;;;3.20;99.90;;;;;;5054087;28;20200;-67
2021/12/11 06:31:36;;;;;;;6.30;5.80;;;3.20;99.90;;;;;;5055112;28;20525;-67
2021/12/11 06:34:03;;;;;;;7.07;6.43;;;3.20;99.90;;;;;;5054866;28;20208;-67
2021/12/11 06:36:30;;;;;;;7.40;6.70;;;3.20;99.90;;;;;;5054649;28;20200;-68
2021/12/11 06:39:00;;;;;;;7.43;6.72;;;3.20;99.90;;;;;;5055054;28;20204;-68
2021/12/11 06:41:32;;;;;;;7.63;6.93;;;3.10;99.90;;;;;;5055028;28;20656;-67
2021/12/11 06:43:59;;;;;;;8.10;7.30;;;3.10;99.90;;;;;;5055003;28;20211;-67
2021/12/11 06:46:26;;;;;;;7.80;7.10;;;3.10;99.90;;;;;;5054565;28;20204;-68
2021/12/11 06:48:52;;;;;;;9.15;8.15;;;3.00;99.90;;;;;;5053592;28;20561;-68
2021/12/11 06:51:19;;;;;;;9.07;7.80;;;3.00;99.90;;;;;;5054907;28;20688;-68
2021/12/11 06:53:52;;;;;;;8.90;8.10;;;3.00;99.90;;;;;;5054878;28;20634;-68
2021/12/11 06:56:21;;;;;;;8.80;8.00;;;3.00;99.90;;;;;;5054406;28;20634;-68
2021/12/11 06:58:48;;;;;;;9.13;8.27;;;2.90;99.90;;;;;;5054425;28;20224;-68
2021/12/11 07:01:15;;;;;;;9.98;9.00;;;3.00;99.90;;;;;;5053281;28;20625;-68
2021/12/11 07:03:42;;;;;;;9.40;8.38;;;2.90;99.90;;;;;;5054502;28;20200;-68
2021/12/11 07:06:08;;;;;;;8.05;7.25;;;2.90;99.90;;;;;;5054642;28;20193;-68
2021/12/11 07:08:38;;;;;;;9.50;8.60;;;2.90;99.90;;;;;;5054249;28;20200;-68
2021/12/11 07:11:10;;;;;;;9.68;8.77;;;2.80;99.90;;;;;;5053964;28;20211;-68
2021/12/11 07:13:37;;;;;;;8.82;7.93;;;2.80;99.90;;;;;;5054345;28;20209;-68
2021/12/11 07:16:04;;;;;;;9.18;8.25;;;2.80;99.90;;;;;;5052934;28;20572;-68
2021/12/11 07:18:34;;;;;;;9.32;8.32;;;2.80;99.90;;;;;;5053648;28;20297;-68
2021/12/11 07:21:01;;;;;;;9.18;8.27;;;2.80;99.90;;;;;;5053964;28;20200;-68
2021/12/11 07:23:28;;;;;;;11.93;9.65;;;2.80;99.90;;;;;;5052681;28;20204;-68
2021/12/11 07:26:12;;;;;;;11.55;9.35;;;2.80;99.90;;;;;;5053826;28;20205;-68
2021/12/11 07:28:40;;;;;;;10.27;8.90;;;2.80;99.90;;;;;;5053934;28;20253;-68
2021/12/11 07:31:07;;;;;;;9.13;8.20;;;2.70;99.90;;;;;;5053698;28;20205;-68
2021/12/11 07:33:33;;;;;;;10.43;9.25;;;2.70;99.90;;;;;;5052416;28;20204;-68
2021/12/11 07:36:00;;;;;;;11.93;10.75;;;2.70;99.90;;;;;;5053494;28;20212;-68
2021/12/11 07:38:27;;;;;;;10.60;9.50;;;2.70;99.90;;;;;;5053912;28;20228;-68
2021/12/11 07:40:56;;;;;;;12.02;10.30;;;2.80;99.90;;;;;;5053845;28;20253;-68
2021/12/11 07:43:26;;;;;;;12.35;10.48;;;2.80;99.90;;;;;;5053500;28;20216;-68
2021/12/11 07:45:55;;;;;;;13.95;10.93;;;2.80;99.90;;;;;;5052200;28;20270;-68
2021/12/11 07:48:22;;;;;;;13.32;9.65;;;2.80;99.90;;;;;;5061644;28;20220;-68
2021/12/11 07:50:49;;;;;;;12.07;10.57;;;2.80;99.90;;;;;;5073481;28;20232;-68
2021/12/11 07:53:17;;;;;;;12.90;11.02;;;2.80;99.90;;;;;;5073603;28;20562;-68
2021/12/11 07:55:44;;;;;;;12.85;11.10;;;2.80;99.90;;;;;;5073755;28;20207;-68
2021/12/11 07:58:10;;;;;;;10.73;9.73;;;2.80;99.90;;;;;;5073021;28;20567;-68
2021/12/11 08:00:39;;;;;;;11.93;10.75;;;2.80;99.90;;;;;;5073425;28;20613;-68
2021/12/11 08:03:08;;;;;;;11.35;10.18;;;2.90;99.90;;;;;;5073535;28;20194;-68
2021/12/11 08:05:36;;;;;;;11.65;10.35;;;2.90;99.90;;;;;;5073127;28;20655;-68
2021/12/11 08:08:05;;;;;;;12.45;10.57;;;2.90;99.90;;;;;;5072970;28;20218;-68
2021/12/11 08:10:34;;;;;;;11.80;10.48;;;2.90;99.90;;;;;;5073023;28;20208;-69
2021/12/11 08:13:02;;;;;;;10.55;9.45;;;3.00;99.90;;;;;;5073529;28;20207;-69
2021/12/11 08:15:29;;;;;;;10.65;9.48;;;3.00;99.90;;;;;;5073700;28;20218;-67
2021/12/11 08:17:55;;;;;;;10.88;9.75;;;3.10;99.90;;;;;;5073134;28;20761;-67
2021/12/11 08:20:27;;;;;;;13.93;10.15;;;3.10;99.90;;;;;;5073574;28;20217;-67
2021/12/11 08:22:55;;;;;;;10.75;9.65;;;3.20;99.90;;;;;;5073792;28;20195;-67
2021/12/11 08:25:25;;;;;;;11.13;10.02;;;3.20;99.90;;;;;;5073290;28;20881;-68
2021/12/11 08:27:53;;;;;;;11.05;9.95;;;3.20;99.90;;;;;;5073776;28;20582;-68
2021/12/11 08:30:20;;;;;;;11.00;9.68;;;3.30;99.90;;;;;;5077558;28;20215;-68
2021/12/11 08:32:47;;;;;;;10.80;9.68;;;3.30;99.90;;;;;;5077250;28;20215;-68
2021/12/11 08:35:14;;;;;;;11.57;9.57;;;3.40;99.90;;;;;;5077472;28;20207;-68
2021/12/11 08:37:45;;;;;;;12.27;10.35;;;3.50;99.90;;;;;;5075578;28;20253;-68
2021/12/11 08:40:17;;;;;;;11.10;9.95;;;3.60;99.90;;;;;;5077101;28;20755;-68
2021/12/11 08:42:44;;;;;;;11.45;10.07;;;3.70;99.90;;;;;;5076674;28;20203;-68
2021/12/11 08:45:20;;;;;;;11.52;10.32;;;3.80;99.90;;;;;;5076825;28;20643;-68
2021/12/11 08:47:49;;;;;;;11.90;10.75;;;3.90;99.90;;;;;;5076853;28;20211;-68
2021/12/11 08:50:19;;;;;;;11.18;9.88;;;4.00;99.90;;;;;;5076743;28;20235;-68
2021/12/11 08:52:50;;;;;;;14.82;11.43;;;4.00;99.90;;;;;;5077215;28;20690;-68
2021/12/11 08:55:22;;;;;;;11.23;10.20;;;4.10;99.90;;;;;;5077348;28;20680;-68
2021/12/11 08:57:50;;;;;;;10.20;9.13;;;4.10;99.90;;;;;;5076755;28;20671;-68
2021/12/11 09:00:22;;;;;;;10.50;9.40;;;4.10;99.90;;;;;;5076604;28;20575;-68
2021/12/11 09:03:03;;;;;;;9.20;8.07;;;4.10;99.90;;;;;;5077017;28;20606;-68
2021/12/11 09:05:36;;;;;;;11.13;9.90;;;4.10;99.90;;;;;;5076916;28;20180;-68
2021/12/11 09:08:20;;;;;;;12.25;9.93;;;4.10;99.90;;;;;;5076753;28;20245;-68
2021/12/11 09:11:01;;;;;;;16.10;11.93;;;4.20;99.90;;;;;;5076949;28;20210;-68
2021/12/11 09:13:44;;;;;;;8.95;8.05;;;4.20;99.90;;;;;;5076418;28;20188;-68
2021/12/11 09:16:31;;;;;;;10.40;9.40;;;4.10;99.90;;;;;;5076462;28;20648;-68
2021/12/11 09:19:07;;;;;;;11.20;9.65;;;4.20;99.90;;;;;;5076395;28;20257;-68
2021/12/11 09:21:42;;;;;;;11.75;9.70;;;4.20;99.90;;;;;;5075057;28;20191;-68
2021/12/11 09:24:18;;;;;;;11.05;9.95;;;4.10;99.90;;;;;;5076136;28;20550;-67
2021/12/11 09:26:59;;;;;;;10.75;9.65;;;4.20;99.90;;;;;;5075037;28;20180;-67
2021/12/11 09:29:35;;;;;;;10.00;9.00;;;4.10;99.90;;;;;;5075973;28;20298;-67
2021/12/11 09:32:05;;;;;;;13.05;11.07;;;4.10;99.90;;;;;;5076018;28;20208;-67
2021/12/11 09:34:40;;;;;;;12.57;11.25;;;4.30;99.90;;;;;;5075294;28;20203;-67
2021/12/11 09:37:08;;;;;;;14.40;11.65;;;4.20;99.90;;;;;;5074734;28;20214;-67
2021/12/11 09:39:42;;;;;;;11.77;9.70;;;4.30;99.90;;;;;;5074895;28;20618;-67
2021/12/11 09:42:08;;;;;;;10.20;9.20;;;4.30;99.90;;;;;;5076229;28;20180;-68
2021/12/11 09:45:01;;;;;;;12.65;10.73;;;4.40;99.90;;;;;;5075711;28;20207;-68
2021/12/11 09:47:34;;;;;;;11.45;10.35;;;4.50;99.90;;;;;;5070892;28;20204;-68
2021/12/11 09:50:09;;;;;;;11.60;10.15;;;4.60;99.90;;;;;;5075341;28;20262;-68
2021/12/11 09:52:38;;;;;;;12.07;10.85;;;4.60;99.90;;;;;;5075410;28;20218;-68
2021/12/11 09:55:10;;;;;;;8.70;7.90;;;4.70;99.90;;;;;;5075615;28;20273;-68
2021/12/11 09:57:42;;;;;;;9.18;8.25;;;4.60;99.90;;;;;;5075366;28;20223;-68
2021/12/11 10:00:15;;;;;;;10.02;9.02;;;4.60;99.90;;;;;;5075896;28;20180;-68
2021/12/11 10:02:43;;;;;;;13.23;10.93;;;4.70;99.90;;;;;;5075164;28;20636;-68
2021/12/11 10:05:36;;;;;;;11.95;10.75;;;4.80;99.90;;;;;;5074034;28;20541;-68
2021/12/11 10:08:30;;;;;;;11.25;10.07;;;4.80;99.90;;;;;;5075202;28;20744;-68
2021/12/11 10:11:09;;;;;;;10.95;9.05;;;4.80;99.90;;;;;;5074322;28;20204;-68
2021/12/11 10:13:47;;;;;;;14.05;10.65;;;4.70;99.90;;;;;;5075337;28;20211;-69
2021/12/11 10:16:16;;;;;;;11.73;10.50;;;4.80;99.90;;;;;;5075422;28;20321;-69
2021/12/11 10:18:43;;;;;;;11.18;9.55;;;4.80;99.90;;;;;;5074811;28;20238;-68
2021/12/11 10:21:19;;;;;;;11.43;10.23;;;4.80;99.90;;;;;;5075167;28;20200;-68
2021/12/11 10:23:49;;;;;;;10.05;9.05;;;4.80;99.90;;;;;;5074894;28;20191;-69
2021/12/11 10:26:17;;;;;;;8.68;7.78;;;4.70;99.90;;;;;;5074998;28;20696;-68
2021/12/11 10:28:47;;;;;;;10.10;9.02;;;4.70;99.90;;;;;;5073937;28;20639;-68
2021/12/11 10:31:23;;;;;;;10.57;8.73;;;4.90;99.90;;;;;;5074749;28;20208;-69
2021/12/11 10:33:50;;;;;;;9.95;8.95;;;5.10;99.90;;;;;;5074894;28;20192;-69
2021/12/11 10:36:26;;;;;;;9.68;8.52;;;5.20;99.90;;;;;;5075156;28;20550;-69
2021/12/11 10:38:56;;;;;;;10.45;8.35;;;5.30;99.90;;;;;;5074577;28;20223;-69
2021/12/11 10:41:23;;;;;;;12.38;9.05;;;5.30;99.90;;;;;;5074603;28;20610;-69
2021/12/11 10:43:54;;;;;;;9.45;8.55;;;5.60;99.90;;;;;;5073146;28;20196;-69
2021/12/11 10:46:29;;;;;;;11.25;9.85;;;5.50;99.90;;;;;;5073239;28;20227;-69
2021/12/11 10:48:56;;;;;;;11.30;9.45;;;5.40;99.90;;;;;;5074682;28;20184;-69
2021/12/11 10:51:39;;;;;;;12.98;11.25;;;5.50;99.90;;;;;;5074023;28;20235;-69
2021/12/11 10:54:07;;;;;;;11.40;9.98;;;5.60;99.90;;;;;;5074649;28;20694;-69
2021/12/11 10:56:34;;;;;;;10.80;9.15;;;5.50;99.90;;;;;;5074610;28;20203;-69
2021/12/11 10:59:31;;;;;;;10.45;9.02;;;5.20;99.90;;;;;;5074584;28;20226;-69
2021/12/11 11:02:06;;;;;;;15.38;11.43;;;5.20;99.90;;;;;;5069345;28;20200;-69
2021/12/11 11:04:48;;;;;;;9.70;7.32;;;5.30;99.90;;;;;;5074845;28;20198;-68
2021/12/11 11:07:15;;;;;;;10.63;8.80;;;5.10;99.90;;;;;;5074786;28;20192;-68
2021/12/11 11:09:43;;;;;;;8.13;7.35;;;5.00;99.90;;;;;;5074515;28;20253;-68
2021/12/11 11:12:15;;;;;;;11.82;7.97;;;4.90;99.90;;;;;;5075496;28;20203;-68
2021/12/11 11:14:42;;;;;;;8.02;6.80;;;4.80;99.90;;;;;;5073894;28;20293;-68
2021/12/11 11:17:13;;;;;;;8.93;7.93;;;4.60;99.90;;;;;;5074471;28;20211;-68
2021/12/11 11:19:41;;;;;;;9.82;7.72;;;4.50;99.90;;;;;;5074268;28;20220;-68
2021/12/11 11:22:15;;;;;;;9.43;7.43;;;4.60;99.90;;;;;;5074675;28;20196;-67
2021/12/11 11:24:47;;;;;;;9.65;7.70;;;5.20;99.90;;;;;;5074585;28;20195;-68
2021/12/11 11:27:15;;;;;;;8.55;5.70;;;5.80;99.90;;;;;;5074012;28;20185;-68
2021/12/11 11:29:45;;;;;;;8.10;7.00;;;5.70;99.90;;;;;;5074215;28;20208;-68
2021/12/11 11:32:16;;;;;;;6.40;5.80;;;6.20;99.90;;;;;;5073869;28;20699;-68
2021/12/11 11:34:44;;;;;;;6.85;6.15;;;6.10;99.90;;;;;;5073865;28;20188;-68
2021/12/11 11:37:16;;;;;;;12.80;5.60;;;6.30;99.90;;;;;;5073786;28;20207;-68
2021/12/11 11:39:43;;;;;;;6.32;5.82;;;6.70;99.90;;;;;;5074173;28;20207;-69
2021/12/11 11:42:14;;;;;;;6.40;5.80;;;6.90;99.90;;;;;;5072609;28;20200;-69
2021/12/11 11:44:45;;;;;;;7.00;5.63;;;6.90;99.90;;;;;;5074230;28;20188;-69
2021/12/11 11:47:13;;;;;;;6.20;5.70;;;6.80;99.90;;;;;;5074054;28;20200;-68
2021/12/11 11:49:41;;;;;;;8.35;7.25;;;6.90;99.90;;;;;;5074224;28;20559;-68
2021/12/11 11:52:15;;;;;;;8.20;6.85;;;7.20;99.90;;;;;;5073808;28;20204;-69
2021/12/11 11:54:45;;;;;;;9.40;6.95;;;7.50;99.90;;;;;;5073452;28;20773;-68
2021/12/11 11:57:15;;;;;;;10.40;7.25;;;7.60;99.90;;;;;;5073473;28;20177;-68
2021/12/11 11:59:42;;;;;;;8.38;7.57;;;7.60;99.90;;;;;;5073700;28;20216;-68
2021/12/11 12:02:22;;;;;;;12.38;9.27;;;8.00;99.90;;;;;;5073438;28;20203;-69
2021/12/11 12:04:51;;;;;;;6.18;5.57;;;8.40;99.90;;;;;;5072159;28;20195;-68
2021/12/11 12:07:26;;;;;;;8.77;6.30;;;7.90;99.90;;;;;;5056280;28;20713;-68
2021/12/11 12:09:55;;;;;;;4.93;4.53;;;7.50;99.90;;;;;;5053801;28;20204;-68
2021/12/11 12:12:22;;;;;;;5.30;4.80;;;7.10;99.90;;;;;;5053543;28;20204;-68
2021/12/11 12:14:51;;;;;;;6.57;5.90;;;7.60;99.90;;;;;;5052375;28;20201;-68
2021/12/11 12:17:23;;;;;;;6.90;5.35;;;7.90;99.90;;;;;;5051469;28;20200;-68
2021/12/11 12:19:51;;;;;;;5.70;5.20;;;8.20;99.90;;;;;;5053617;28;20212;-68
2021/12/11 12:22:19;;;;;;;6.22;5.63;;;7.80;99.90;;;;;;5053117;28;20192;-68
2021/12/11 12:24:49;;;;;;;5.30;4.80;;;7.80;99.90;;;;;;5053090;28;20228;-68
2021/12/11 12:27:17;;;;;;;5.95;5.45;;;7.40;99.90;;;;;;5053261;28;20200;-68
2021/12/11 12:29:45;;;;;;;6.35;5.70;;;7.20;99.90;;;;;;5052888;28;20253;-68
2021/12/11 12:32:19;;;;;;;6.25;5.65;;;7.40;99.90;;;;;;5052655;28;20204;-68
2021/12/11 12:34:46;;;;;;;6.13;5.63;;;7.40;99.90;;;;;;5052958;28;20206;-68
2021/12/11 12:37:13;;;;;;;7.63;5.88;;;7.90;99.90;;;;;;5053008;28;20540;-69
2021/12/11 12:39:44;;;;;;;5.05;4.65;;;8.40;99.90;;;;;;5035253;28;20228;-68
2021/12/11 12:42:20;;;;;;;6.93;5.32;;;8.80;99.90;;;;;;5052885;28;20189;-68
2021/12/11 12:45:18;;;;;;;5.80;5.20;;;8.90;99.90;;;;;;5053500;28;20202;-68
2021/12/11 12:47:52;;;;;;;5.28;4.88;;;8.90;99.90;;;;;;5061055;28;20204;-68
2021/12/11 12:50:42;;;;;;;4.03;3.65;;;8.20;99.90;;;;;;5071345;28;20296;-69
2021/12/11 12:53:10;;;;;;;10.32;4.65;;;7.40;99.90;;;;;;5072849;28;20211;-68
2021/12/11 12:56:06;;;;;;;4.40;4.00;;;7.40;99.90;;;;;;5072603;28;20206;-69
2021/12/11 12:58:40;;;;;;;5.43;4.75;;;7.10;99.90;;;;;;5069298;28;20224;-68
2021/12/11 13:01:17;;;;;;;6.20;4.88;;;6.70;99.90;;;;;;5072880;28;20645;-68
2021/12/11 13:03:45;;;;;;;5.32;4.88;;;6.60;99.90;;;;;;5072928;28;20246;-69
2021/12/11 13:06:17;;;;;;;11.32;4.95;;;6.60;99.90;;;;;;5072323;28;20208;-69
2021/12/11 13:08:49;;;;;;;6.93;4.95;;;6.40;99.90;;;;;;5072363;28;20188;-69
2021/12/11 13:11:27;;;;;;;5.32;4.03;;;6.30;99.90;;;;;;5071239;28;20227;-69
2021/12/11 13:13:55;;;;;;;4.20;3.90;;;6.10;99.90;;;;;;5072943;28;20242;-69
2021/12/11 13:16:26;;;;;;;10.35;5.45;;;6.10;99.90;;;;;;5076445;28;20219;-69
2021/12/11 13:19:21;;;;;;;6.80;5.00;;;6.30;99.90;;;;;;5075945;28;20281;-69
2021/12/11 13:21:52;;;;;;;4.75;4.35;;;6.20;99.90;;;;;;5076181;28;20765;-69
2021/12/11 13:24:20;;;;;;;7.57;4.90;;;6.10;99.90;;;;;;5076378;28;20196;-69
2021/12/11 13:26:50;;;;;;;9.98;5.18;;;6.00;99.90;;;;;;5076153;28;20200;-69
2021/12/11 13:29:20;;;;;;;5.30;4.80;;;6.00;99.90;;;;;;5076115;28;20192;-69
2021/12/11 13:32:00;;;;;;;5.65;5.15;;;6.00;99.90;;;;;;5076052;28;20726;-69
2021/12/11 13:34:32;;;;;;;5.85;5.35;;;6.10;99.90;;;;;;5074803;28;20260;-69
2021/12/11 13:37:02;;;;;;;7.28;4.97;;;5.80;99.90;;;;;;5076145;28;20189;-69
2021/12/11 13:39:29;;;;;;;5.78;5.07;;;5.70;99.90;;;;;;5075884;28;20216;-69